トゥールーズ の空港の天気 - METARとTAF

トゥールーズ・ブラニャック空港 ( LFBO / TLS ) - フランス トゥールーズ
飛行場実況気象(Metar)
観測時間07/20 13:00 CEST (07/20 11:00 UTC)
風向・風速東 2m/s
視程10km以上
天気現象
全天の8割程度の雲 雲底高度 790m
全天の8割程度の雲 雲底高度 1100m
全天を覆う雲 雲底高度 1340m
気温25℃
湿度69%
気圧1017hPa
METARLFBO 201100Z AUTO 08004KT 030V130 9999 BKN026 BKN036 OVC044 25/19 Q1017 NOSIG
過去の天気等 Google飛行場航空写真 Wunderground天気予報

過去48時間のMETAR

飛行場予報(TAF)
発表時間: 7/20 07:00 CEST (7/20 05:00 UTC)
予報対象時間: 20日8時 CEST ~ 21日14時 CEST
風向・風速南南東 4m/s
視程10km以上
全天の8割程度の雲 雲底高度 610m
20日8時 CEST ~ 20日10時 CEST に 確率 40% で一時的に
全天の8割程度の雲 雲底高度 430m
20日8時 CEST ~ 20日11時 CEST に一時的に
風向・風速不定 2m/s
少しの積乱雲 雲底高度 2440m
全天の8割程度の雲 雲底高度 3960m
20日8時 CEST ~ 20日9時 CEST に 確率 40% で一時的に
風向・風速不定 8m/s 瞬間風速 13m/s
天気現象弱い雷雨
全天の4割程度の積乱雲 雲底高度 1830m
全天の8割程度の雲 雲底高度 3050m
20日18時 CEST ~ 20日20時 CEST に徐々に
風向・風速不定 2m/s
21日0時 CEST ~ 21日2時 CEST に徐々に
風向・風速西 3m/s
TAF LFBO 200500Z 2006/2112 16007KT 9999 BKN020
PROB40 TEMPO 2006/2008 BKN014
TEMPO 2006/2009 VRB03KT FEW080CB BKN130
PROB40 TEMPO 2006/2007 VRB15G25KT -TSRA SCT060CB BKN100
BECMG 2016/2018 VRB03KT
BECMG 2022/2024 28006KT